Time;durP1;ratioP1;P1;durP2;ratioP2;P2;SDS_P1;SDS_P2;PMS_P1;PMS_P2;Temp;Humidity;BMP_temperature;BMP_pressure;BME280_temperature;BME280_humidity;BME280_pressure;Samples;Min_cycle;Max_cycle;Signal;HPM_P1;HPM_P2
2023/01/17 00:00:42;;;;;;;0.80;0.20;;;;;;;;;;10318895;28;20279;-85
2023/01/17 00:11:03;;;;;;;0.10;0.10;;;;;;;;;;10325253;28;20219;-88
2023/01/17 00:16:05;;;;;;;0.30;0.30;;;;;;;;;;10321453;28;20255;-87
2023/01/17 00:26:26;;;;;;;0.20;0.20;;;;;;;;;;10322812;28;20235;-79
2023/01/17 01:34:28;;;;;;;0.10;0.10;;;;;;;;;;10321873;28;20227;-87
2023/01/17 01:39:29;;;;;;;0.10;0.10;;;;;;;;;;10322529;28;20289;-90
2023/01/17 01:44:44;;;;;;;0.10;0.10;;;;;;;;;;10310995;28;20213;-87
2023/01/17 01:49:45;;;;;;;0.30;0.30;;;;;;;;;;10306031;28;20231;-85
2023/01/17 01:54:49;;;;;;;0.30;0.20;;;;;;;;;;10326467;28;20241;-89
2023/01/17 01:59:58;;;;;;;0.17;0.17;;;;;;;;;;10323679;28;20244;-89
2023/01/17 02:04:59;;;;;;;0.30;0.30;;;;;;;;;;10322360;28;21024;-88
2023/01/17 02:10:02;;;;;;;0.20;0.20;;;;;;;;;;10322943;28;20209;-86
2023/01/17 02:15:05;;;;;;;0.15;0.15;;;;;;;;;;10321343;28;20228;-85
2023/01/17 02:20:24;;;;;;;0.20;0.20;;;;;;;;;;10324126;28;20698;-86
2023/01/17 02:25:32;;;;;;;0.10;0.10;;;;;;;;;;10283688;28;20230;-87
2023/01/17 02:30:35;;;;;;;0.10;0.10;;;;;;;;;;10281046;28;20221;-89
2023/01/17 02:35:51;;;;;;;0.10;0.10;;;;;;;;;;10289257;28;20294;-79
2023/01/17 02:40:54;;;;;;;0.10;0.10;;;;;;;;;;10282764;28;20224;-90
2023/01/17 02:45:55;;;;;;;0.20;0.20;;;;;;;;;;10284518;28;20222;-86
2023/01/17 02:51:03;;;;;;;0.10;0.10;;;;;;;;;;10279951;28;20226;-84
2023/01/17 02:56:12;;;;;;;0.10;0.10;;;;;;;;;;10252286;28;20229;-89
2023/01/17 03:01:28;;;;;;;0.20;0.20;;;;;;;;;;10281522;28;20507;-86
2023/01/17 03:06:51;;;;;;;0.30;0.20;;;;;;;;;;10286152;28;20220;-89
2023/01/17 03:11:52;;;;;;;0.30;0.30;;;;;;;;;;10286648;28;20210;-86
2023/01/17 03:16:53;;;;;;;0.30;0.30;;;;;;;;;;10285177;28;20221;-81
2023/01/17 03:21:54;;;;;;;0.20;0.20;;;;;;;;;;10294089;28;20240;-83
2023/01/17 03:26:55;;;;;;;0.75;0.20;;;;;;;;;;10318008;28;20643;-85
2023/01/17 03:31:57;;;;;;;0.20;0.20;;;;;;;;;;10317961;28;20221;-78
2023/01/17 03:36:58;;;;;;;0.30;0.30;;;;;;;;;;10313243;28;20231;-84
2023/01/17 03:41:59;;;;;;;0.50;0.22;;;;;;;;;;10315121;28;20223;-85
2023/01/17 03:47:00;;;;;;;0.30;0.30;;;;;;;;;;10303684;28;20224;-83
2023/01/17 03:52:01;;;;;;;0.20;0.20;;;;;;;;;;10315389;28;20213;-85
2023/01/17 03:57:02;;;;;;;0.20;0.20;;;;;;;;;;10311488;28;20216;-78
2023/01/17 04:02:03;;;;;;;1.75;0.30;;;;;;;;;;10314169;28;20212;-83
2023/01/17 04:07:04;;;;;;;0.20;0.20;;;;;;;;;;10308114;28;20287;-85
2023/01/17 04:12:05;;;;;;;0.20;0.20;;;;;;;;;;10309784;28;20671;-78
2023/01/17 04:17:07;;;;;;;0.20;0.20;;;;;;;;;;10309097;28;20303;-85
2023/01/17 04:22:08;;;;;;;0.30;0.30;;;;;;;;;;10294200;28;20233;-85
2023/01/17 04:27:13;;;;;;;0.20;0.20;;;;;;;;;;10312227;28;20312;-80
2023/01/17 04:32:14;;;;;;;0.20;0.20;;;;;;;;;;10320042;28;20219;-86
2023/01/17 04:37:15;;;;;;;0.30;0.30;;;;;;;;;;10315230;28;20228;-85
2023/01/17 04:42:16;;;;;;;0.30;0.30;;;;;;;;;;10314972;28;20213;-85
2023/01/17 04:47:17;;;;;;;0.30;0.30;;;;;;;;;;10299430;28;20342;-85
2023/01/17 04:52:19;;;;;;;0.52;0.43;;;;;;;;;;10316033;28;20591;-85
2023/01/17 04:57:20;;;;;;;2.50;0.40;;;;;;;;;;10315934;28;20294;-85
2023/01/17 05:02:21;;;;;;;3.53;1.38;;;;;;;;;;10318690;28;20216;-86
2023/01/17 05:07:22;;;;;;;0.32;0.32;;;;;;;;;;10313898;28;20592;-85
2023/01/17 05:12:23;;;;;;;0.30;0.30;;;;;;;;;;10312505;28;20228;-82
2023/01/17 05:17:24;;;;;;;0.50;0.50;;;;;;;;;;10310115;28;20275;-87
2023/01/17 05:22:25;;;;;;;0.30;0.30;;;;;;;;;;10325123;28;20232;-86
2023/01/17 05:27:26;;;;;;;0.40;0.40;;;;;;;;;;10308649;28;20239;-86
2023/01/17 05:32:27;;;;;;;0.57;0.40;;;;;;;;;;10328781;28;20229;-86
2023/01/17 05:37:28;;;;;;;0.40;0.40;;;;;;;;;;10323768;28;20225;-86
2023/01/17 05:42:29;;;;;;;0.60;0.60;;;;;;;;;;10317699;28;20217;-82
2023/01/17 05:47:30;;;;;;;0.40;0.40;;;;;;;;;;10317069;28;20209;-87
2023/01/17 05:52:31;;;;;;;0.40;0.40;;;;;;;;;;10312583;28;20212;-82
2023/01/17 05:57:33;;;;;;;0.50;0.50;;;;;;;;;;10322212;28;20221;-88
2023/01/17 06:02:34;;;;;;;0.30;0.30;;;;;;;;;;10318996;28;20231;-85
2023/01/17 06:07:35;;;;;;;0.30;0.30;;;;;;;;;;10299043;28;20221;-86
2023/01/17 06:12:36;;;;;;;0.30;0.30;;;;;;;;;;10317685;28;20213;-89
2023/01/17 06:17:38;;;;;;;0.30;0.30;;;;;;;;;;10324097;28;20263;-83
2023/01/17 06:22:39;;;;;;;0.40;0.40;;;;;;;;;;10300819;28;20233;-86
2023/01/17 06:27:40;;;;;;;0.40;0.40;;;;;;;;;;10312413;28;20277;-89
2023/01/17 06:32:41;;;;;;;0.28;0.28;;;;;;;;;;10319158;28;20229;-87
2023/01/17 06:37:42;;;;;;;0.10;0.10;;;;;;;;;;10313003;28;20232;-89
2023/01/17 06:42:43;;;;;;;0.20;0.20;;;;;;;;;;10316727;28;20253;-88
2023/01/17 06:47:44;;;;;;;0.13;0.13;;;;;;;;;;10300970;28;20217;-80
2023/01/17 06:52:53;;;;;;;0.20;0.20;;;;;;;;;;10300793;28;20260;-80
2023/01/17 06:57:55;;;;;;;0.10;0.10;;;;;;;;;;10296698;28;20230;-77
2023/01/17 07:02:56;;;;;;;0.10;0.10;;;;;;;;;;10298156;28;20236;-79
2023/01/17 07:07:57;;;;;;;0.10;0.10;;;;;;;;;;10291871;28;20292;-79
2023/01/17 07:12:59;;;;;;;0.13;0.13;;;;;;;;;;10283496;28;20240;-77
2023/01/17 07:18:01;;;;;;;0.10;0.10;;;;;;;;;;10288278;28;20216;-78
2023/01/17 07:23:02;;;;;;;0.10;0.10;;;;;;;;;;10283893;28;20261;-82
2023/01/17 07:28:03;;;;;;;0.00;0.00;;;;;;;;;;10287810;28;20275;-79
2023/01/17 07:33:04;;;;;;;0.10;0.10;;;;;;;;;;10286222;28;20231;-81
2023/01/17 07:38:10;;;;;;;0.20;0.20;;;;;;;;;;10290148;28;20311;-80
2023/01/17 07:43:15;;;;;;;0.10;0.10;;;;;;;;;;10281819;28;20354;-82
2023/01/17 07:48:20;;;;;;;2.38;0.20;;;;;;;;;;10288271;28;20216;-77
2023/01/17 07:53:25;;;;;;;0.40;0.15;;;;;;;;;;10283734;28;20253;-76
2023/01/17 07:58:26;;;;;;;0.20;0.20;;;;;;;;;;10283835;28;20243;-78
2023/01/17 08:03:31;;;;;;;0.20;0.20;;;;;;;;;;10285495;28;20256;-78
2023/01/17 08:08:32;;;;;;;0.20;0.20;;;;;;;;;;10288066;28;20221;-76
2023/01/17 08:13:33;;;;;;;0.20;0.20;;;;;;;;;;10285289;28;20368;-77
2023/01/17 08:18:34;;;;;;;0.13;0.13;;;;;;;;;;10285680;28;20226;-79
2023/01/17 08:23:35;;;;;;;0.20;0.20;;;;;;;;;;10284557;28;20315;-77
2023/01/17 08:28:36;;;;;;;0.10;0.10;;;;;;;;;;10284924;28;20214;-76
2023/01/17 08:33:37;;;;;;;0.10;0.10;;;;;;;;;;10276830;28;20229;-75
2023/01/17 08:38:39;;;;;;;0.10;0.10;;;;;;;;;;10283210;28;20699;-74
2023/01/17 08:43:40;;;;;;;0.10;0.10;;;;;;;;;;10279139;28;20280;-74
2023/01/17 08:48:42;;;;;;;0.30;0.30;;;;;;;;;;10293999;28;20259;-74
2023/01/17 08:53:44;;;;;;;0.10;0.10;;;;;;;;;;10291686;28;20290;-79
2023/01/17 08:58:45;;;;;;;0.03;0.03;;;;;;;;;;10291349;28;20219;-76
2023/01/17 09:03:48;;;;;;;0.10;0.10;;;;;;;;;;10291081;28;20708;-76
2023/01/17 09:08:51;;;;;;;0.43;0.10;;;;;;;;;;10292492;28;20308;-76
2023/01/17 09:13:52;;;;;;;0.10;0.10;;;;;;;;;;10289698;28;20281;-74
2023/01/17 09:18:57;;;;;;;1.55;0.10;;;;;;;;;;10293639;28;20618;-75
2023/01/17 09:23:58;;;;;;;0.03;0.03;;;;;;;;;;10284904;28;20229;-77
2023/01/17 09:28:59;;;;;;;0.10;0.10;;;;;;;;;;10269029;28;20528;-76
2023/01/17 09:34:00;;;;;;;0.00;0.00;;;;;;;;;;10292601;28;20827;-74
2023/01/17 09:39:01;;;;;;;0.10;0.10;;;;;;;;;;10295700;28;20227;-75
2023/01/17 09:44:21;;;;;;;0.10;0.10;;;;;;;;;;10287183;28;20216;-76
2023/01/17 09:49:42;;;;;;;0.10;0.10;;;;;;;;;;10285473;28;20220;-78
2023/01/17 09:54:46;;;;;;;0.10;0.10;;;;;;;;;;10296119;28;20868;-76
2023/01/17 10:00:05;;;;;;;0.45;0.10;;;;;;;;;;10274318;28;20205;-76
2023/01/17 10:05:22;;;;;;;0.70;0.10;;;;;;;;;;10286054;28;20205;-75
2023/01/17 10:10:23;;;;;;;0.45;0.20;;;;;;;;;;10294858;28;20639;-76
2023/01/17 10:15:33;;;;;;;0.32;0.10;;;;;;;;;;10274470;28;20669;-76
2023/01/17 10:20:40;;;;;;;0.20;0.20;;;;;;;;;;10292209;28;20765;-78
2023/01/17 10:25:48;;;;;;;0.10;0.10;;;;;;;;;;10291155;28;20224;-76
2023/01/17 10:30:51;;;;;;;0.20;0.20;;;;;;;;;;10292028;28;21694;-78
2023/01/17 10:35:57;;;;;;;0.57;0.20;;;;;;;;;;10291202;28;20251;-78
2023/01/17 10:41:21;;;;;;;0.13;0.13;;;;;;;;;;10283104;28;20316;-76
2023/01/17 10:46:27;;;;;;;0.52;0.52;;;;;;;;;;10277066;28;20213;-77
2023/01/17 10:51:58;;;;;;;0.30;0.30;;;;;;;;;;10291721;28;20779;-76
2023/01/17 10:56:59;;;;;;;0.20;0.20;;;;;;;;;;10281906;28;20732;-78
2023/01/17 11:02:07;;;;;;;0.10;0.10;;;;;;;;;;10282164;28;20224;-77
2023/01/17 11:07:19;;;;;;;1.23;0.30;;;;;;;;;;10273619;28;20224;-77
2023/01/17 11:12:23;;;;;;;0.35;0.25;;;;;;;;;;10289724;28;20267;-77
2023/01/17 11:17:24;;;;;;;0.70;0.20;;;;;;;;;;10272755;28;20224;-77
2023/01/17 11:22:25;;;;;;;0.20;0.20;;;;;;;;;;10287539;28;20734;-77
2023/01/17 11:27:31;;;;;;;0.10;0.10;;;;;;;;;;10294504;28;20208;-78
2023/01/17 11:32:33;;;;;;;1.45;0.30;;;;;;;;;;10290457;28;20221;-80
2023/01/17 11:37:35;;;;;;;0.20;0.17;;;;;;;;;;10280786;28;20275;-76
2023/01/17 11:42:37;;;;;;;2.03;0.20;;;;;;;;;;10280634;28;20224;-78
2023/01/17 11:47:38;;;;;;;3.58;0.40;;;;;;;;;;10288798;28;20213;-78
2023/01/17 11:52:40;;;;;;;2.47;0.20;;;;;;;;;;10269953;28;20224;-79
2023/01/17 11:57:41;;;;;;;0.20;0.20;;;;;;;;;;10265765;28;20901;-79
2023/01/17 12:03:00;;;;;;;1.80;0.20;;;;;;;;;;10268952;28;20213;-77
2023/01/17 12:08:07;;;;;;;0.50;0.20;;;;;;;;;;10285639;28;20213;-79
